Nibulonivets-2 — UXEU — position and weather

sailwx.info

Track history (hours):
 
Tides and Currents Weather Stations Pressure Air Temp Water Temp Dewpoint Dewpoint Depression Visibility Wind Speed Wind Dir Waves Ship Positions

Nibulonivets-2

Last reported at 2018-Jun-18 01:59 UTC. Time now 2018-Jun-22 01:59 UTC.
Position N 46°35' E 031°22'.

Length 39 m; draft 1.9 m.

Type: Port tender. MMSI: 272161600.

Date/timePositionNaut miles runAvg speedWind from/ knotsBaromVisibWave heightAir tempDewpointWater temp
2018-Jun-18 01:59N 46°35' E 031°22'2 4.4
2018-Jun-18 01:30N 46°35' E 031°19'  
2018-Jun-14 04:40N 46°35' E 031°16'1 3.9
2018-Jun-14 04:27N 46°35' E 031°17'2 5.0
2018-Jun-14 03:58N 46°35' E 031°20'  
2018-Jun-11 21:10N 46°35' E 031°21'1 4.2
2018-Jun-11 20:56N 46°35' E 031°19'1 1.4
2018-Jun-11 20:24N 46°35' E 031°18'0 0.0
2018-Jun-11 19:54N 46°35' E 031°18'0 0.0
2018-Jun-10 18:24N 46°35' E 031°18'24 1.5
2018-Jun-10 02:21N 46°37' E 031°53'1 2.7
2018-Jun-10 01:52N 46°38' E 031°54'1 3.0
2018-Jun-10 01:30N 46°39' E 031°55'1 2.9
2018-Jun-10 01:01N 46°40' E 031°56'3 3.0
2018-Jun-10 00:02N 46°43' E 031°56'1 2.8
2018-Jun-09 23:41N 46°44' E 031°56'1 3.2
2018-Jun-09 23:26N 46°44' E 031°55'1 2.9
2018-Jun-09 23:00N 46°45' E 031°53'2 3.1
2018-Jun-09 22:30N 46°47' E 031°53'2 3.1
2018-Jun-09 22:01N 46°48' E 031°53'2 3.1
2018-Jun-09 21:30N 46°49' E 031°55'2 3.0
2018-Jun-09 21:00N 46°50' E 031°56'1 2.9
2018-Jun-09 20:30N 46°52' E 031°58'1 2.9
2018-Jun-09 20:00N 46°53' E 031°59'1 2.8
2018-Jun-09 19:30N 46°54' E 032°00'1 2.8
2018-Jun-09 19:00N 46°55' E 032°01'1 2.2
2018-Jun-09 18:30N 46°56' E 032°00'1 2.2
2018-Jun-09 18:00N 46°56' E 031°59'0 0.2
2018-Jun-09 17:28N 46°56' E 031°59'0 0.7
2018-Jun-09 17:00N 46°57' E 031°59'0 0.0
2018-Jun-09 16:30N 46°57' E 031°59'0 0.0
2018-Jun-09 16:00N 46°57' E 031°59'0 0.0
2018-Jun-09 14:52N 46°57' E 031°59'0 0.0
2018-Jun-09 14:26N 46°57' E 031°59'0 0.0
2018-Jun-09 13:57N 46°57' E 031°59'0 0.0
2018-Jun-09 13:30N 46°57' E 031°59'0 0.0
2018-Jun-09 13:00N 46°57' E 031°59'0 0.0
2018-Jun-09 12:30N 46°57' E 031°59'0 0.0
2018-Jun-09 11:57N 46°57' E 031°59'0 0.0
2018-Jun-09 11:27N 46°57' E 031°59'0 0.0
2018-Jun-09 11:00N 46°57' E 031°59'0 0.0
2018-Jun-09 10:29N 46°57' E 031°59'0 0.0
2018-Jun-09 09:59N 46°57' E 031°59'0 0.0
2018-Jun-09 09:30N 46°57' E 031°59'0 0.0
2018-Jun-09 09:00N 46°57' E 031°59'0 0.0
2018-Jun-09 08:29N 46°57' E 031°59'0 0.0
2018-Jun-09 07:59N 46°57' E 031°59'0 0.0
2018-Jun-09 07:29N 46°57' E 031°59'0 0.0
2018-Jun-09 06:59N 46°57' E 031°59'0 0.0
2018-Jun-09 06:29N 46°57' E 031°59'0 0.0
2018-Jun-09 05:59N 46°57' E 031°59'0 0.0
2018-Jun-09 05:28N 46°57' E 031°59'0 0.0
2018-Jun-09 04:58N 46°57' E 031°59'0 0.0
2018-Jun-09 04:28N 46°57' E 031°59'0 0.0
2018-Jun-09 03:58N 46°57' E 031°59'0 0.0
2018-Jun-09 03:29N 46°57' E 031°59'0 0.0
2018-Jun-09 02:56N 46°57' E 031°59'0 0.0
2018-Jun-09 02:29N 46°57' E 031°59'0 0.0
2018-Jun-09 01:59N 46°57' E 031°59'0 0.0
2018-Jun-09 01:27N 46°57' E 031°59'0 0.0
2018-Jun-09 00:59N 46°57' E 031°59'0 0.0
2018-Jun-09 00:25N 46°57' E 031°59'0 0.0
2018-Jun-08 23:58N 46°57' E 031°59'0 0.0
2018-Jun-08 23:28N 46°57' E 031°59'0 0.0
2018-Jun-08 22:58N 46°57' E 031°59'0 0.0
2018-Jun-08 22:25N 46°57' E 031°59'0 0.0
2018-Jun-08 21:58N 46°57' E 031°59'0 0.0
2018-Jun-08 21:28N 46°57' E 031°59'0 0.0
2018-Jun-08 20:53N 46°57' E 031°59'0 0.0
2018-Jun-08 20:29N 46°57' E 031°59'0 0.0
2018-Jun-08 19:59N 46°57' E 031°59'0 0.0
2018-Jun-08 19:29N 46°57' E 031°59'0 0.0
2018-Jun-08 18:58N 46°57' E 031°59'0 0.0
2018-Jun-08 18:28N 46°57' E 031°59'0 0.0
2018-Jun-08 17:58N 46°57' E 031°59'0 0.0
2018-Jun-08 17:30N 46°57' E 031°59'0 0.0
2018-Jun-08 16:56N 46°57' E 031°59'0 0.0
2018-Jun-08 16:29N 46°57' E 031°59'0 0.0
2018-Jun-08 15:59N 46°57' E 031°59'0 0.0
2018-Jun-08 15:30N 46°57' E 031°59'0 0.0
2018-Jun-08 15:00N 46°57' E 031°59'0 0.0
2018-Jun-08 14:30N 46°57' E 031°59'0 0.0
2018-Jun-08 14:00N 46°57' E 031°59'0 0.0
2018-Jun-08 13:30N 46°57' E 031°59'0 0.0
2018-Jun-08 12:55N 46°57' E 031°59'0 0.0
2018-Jun-08 12:28N 46°57' E 031°59'0 0.0
2018-Jun-08 11:58N 46°57' E 031°59'0 0.0
2018-Jun-08 11:28N 46°57' E 031°59'0 0.0
2018-Jun-08 10:58N 46°57' E 031°59'0 0.0
2018-Jun-08 10:28N 46°57' E 031°59'0 0.0
2018-Jun-08 09:55N 46°57' E 031°59'0 0.0
2018-Jun-08 09:28N 46°57' E 031°59'0 0.0
2018-Jun-08 08:58N 46°57' E 031°59'0 0.0
2018-Jun-08 08:28N 46°57' E 031°59'0 0.0
2018-Jun-08 07:58N 46°57' E 031°59'0 0.0
2018-Jun-08 07:26N 46°57' E 031°59'0 0.0
2018-Jun-08 06:59N 46°57' E 031°59'0 0.0
2018-Jun-08 06:30N 46°57' E 031°59'0 0.0
2018-Jun-08 06:00N 46°57' E 031°59'0 0.0
2018-Jun-08 05:30N 46°57' E 031°59'0 0.0
2018-Jun-08 05:00N 46°57' E 031°59'0 0.0
2018-Jun-08 04:30N 46°57' E 031°59'0 0.0
2018-Jun-08 04:00N 46°57' E 031°59'0 0.0
2018-Jun-08 03:29N 46°57' E 031°59'0 0.0
2018-Jun-08 02:58N 46°57' E 031°59'0 0.0
2018-Jun-08 02:28N 46°57' E 031°59'  
Track history (hours):
 
Tides and Currents Weather Stations Pressure Air Temp Water Temp Dewpoint Dewpoint Depression Visibility Wind Speed Wind Dir Waves Ship Positions

Nibulonivets-2

Last reported at 2018-Jun-18 01:59 UTC. Time now 2018-Jun-22 01:59 UTC.
Position N 46°35' E 031°22'.

Length 39 m; draft 1.9 m.

Type: Port tender. MMSI: 272161600.

Date/timePositionNaut miles runAvg speedWind from/ knotsBaromVisibWave heightAir tempDewpointWater temp
2018-Jun-18 01:59N 46°35' E 031°22'2 4.4
2018-Jun-18 01:30N 46°35' E 031°19'  
2018-Jun-14 04:40N 46°35' E 031°16'1 3.9
2018-Jun-14 04:27N 46°35' E 031°17'2 5.0
2018-Jun-14 03:58N 46°35' E 031°20'  
2018-Jun-11 21:10N 46°35' E 031°21'1 4.2
2018-Jun-11 20:56N 46°35' E 031°19'1 1.4
2018-Jun-11 20:24N 46°35' E 031°18'0 0.0
2018-Jun-11 19:54N 46°35' E 031°18'0 0.0
2018-Jun-10 18:24N 46°35' E 031°18'24 1.5
2018-Jun-10 02:21N 46°37' E 031°53'1 2.7
2018-Jun-10 01:52N 46°38' E 031°54'1 3.0
2018-Jun-10 01:30N 46°39' E 031°55'1 2.9
2018-Jun-10 01:01N 46°40' E 031°56'3 3.0
2018-Jun-10 00:02N 46°43' E 031°56'1 2.8
2018-Jun-09 23:41N 46°44' E 031°56'1 3.2
2018-Jun-09 23:26N 46°44' E 031°55'1 2.9
2018-Jun-09 23:00N 46°45' E 031°53'2 3.1
2018-Jun-09 22:30N 46°47' E 031°53'2 3.1
2018-Jun-09 22:01N 46°48' E 031°53'2 3.1
2018-Jun-09 21:30N 46°49' E 031°55'2 3.0
2018-Jun-09 21:00N 46°50' E 031°56'1 2.9
2018-Jun-09 20:30N 46°52' E 031°58'1 2.9
2018-Jun-09 20:00N 46°53' E 031°59'1 2.8
2018-Jun-09 19:30N 46°54' E 032°00'1 2.8
2018-Jun-09 19:00N 46°55' E 032°01'1 2.2
2018-Jun-09 18:30N 46°56' E 032°00'1 2.2
2018-Jun-09 18:00N 46°56' E 031°59'0 0.2
2018-Jun-09 17:28N 46°56' E 031°59'0 0.7
2018-Jun-09 17:00N 46°57' E 031°59'0 0.0
2018-Jun-09 16:30N 46°57' E 031°59'0 0.0
2018-Jun-09 16:00N 46°57' E 031°59'0 0.0
2018-Jun-09 14:52N 46°57' E 031°59'0 0.0
2018-Jun-09 14:26N 46°57' E 031°59'0 0.0
2018-Jun-09 13:57N 46°57' E 031°59'0 0.0
2018-Jun-09 13:30N 46°57' E 031°59'0 0.0
2018-Jun-09 13:00N 46°57' E 031°59'0 0.0
2018-Jun-09 12:30N 46°57' E 031°59'0 0.0
2018-Jun-09 11:57N 46°57' E 031°59'0 0.0
2018-Jun-09 11:27N 46°57' E 031°59'0 0.0
2018-Jun-09 11:00N 46°57' E 031°59'0 0.0
2018-Jun-09 10:29N 46°57' E 031°59'0 0.0
2018-Jun-09 09:59N 46°57' E 031°59'0 0.0
2018-Jun-09 09:30N 46°57' E 031°59'0 0.0
2018-Jun-09 09:00N 46°57' E 031°59'0 0.0
2018-Jun-09 08:29N 46°57' E 031°59'0 0.0
2018-Jun-09 07:59N 46°57' E 031°59'0 0.0
2018-Jun-09 07:29N 46°57' E 031°59'0 0.0
2018-Jun-09 06:59N 46°57' E 031°59'0 0.0
2018-Jun-09 06:29N 46°57' E 031°59'0 0.0
2018-Jun-09 05:59N 46°57' E 031°59'0 0.0
2018-Jun-09 05:28N 46°57' E 031°59'0 0.0
2018-Jun-09 04:58N 46°57' E 031°59'0 0.0
2018-Jun-09 04:28N 46°57' E 031°59'0 0.0
2018-Jun-09 03:58N 46°57' E 031°59'0 0.0
2018-Jun-09 03:29N 46°57' E 031°59'0 0.0
2018-Jun-09 02:56N 46°57' E 031°59'0 0.0
2018-Jun-09 02:29N 46°57' E 031°59'0 0.0
2018-Jun-09 01:59N 46°57' E 031°59'0 0.0
2018-Jun-09 01:27N 46°57' E 031°59'0 0.0
2018-Jun-09 00:59N 46°57' E 031°59'0 0.0
2018-Jun-09 00:25N 46°57' E 031°59'0 0.0
2018-Jun-08 23:58N 46°57' E 031°59'0 0.0
2018-Jun-08 23:28N 46°57' E 031°59'0 0.0
2018-Jun-08 22:58N 46°57' E 031°59'0 0.0
2018-Jun-08 22:25N 46°57' E 031°59'0 0.0
2018-Jun-08 21:58N 46°57' E 031°59'0 0.0
2018-Jun-08 21:28N 46°57' E 031°59'0 0.0
2018-Jun-08 20:53N 46°57' E 031°59'0 0.0
2018-Jun-08 20:29N 46°57' E 031°59'0 0.0
2018-Jun-08 19:59N 46°57' E 031°59'0 0.0
2018-Jun-08 19:29N 46°57' E 031°59'0 0.0
2018-Jun-08 18:58N 46°57' E 031°59'0 0.0
2018-Jun-08 18:28N 46°57' E 031°59'0 0.0
2018-Jun-08 17:58N 46°57' E 031°59'0 0.0
2018-Jun-08 17:30N 46°57' E 031°59'0 0.0
2018-Jun-08 16:56N 46°57' E 031°59'0 0.0
2018-Jun-08 16:29N 46°57' E 031°59'0 0.0
2018-Jun-08 15:59N 46°57' E 031°59'0 0.0
2018-Jun-08 15:30N 46°57' E 031°59'0 0.0
2018-Jun-08 15:00N 46°57' E 031°59'0 0.0
2018-Jun-08 14:30N 46°57' E 031°59'0 0.0
2018-Jun-08 14:00N 46°57' E 031°59'0 0.0
2018-Jun-08 13:30N 46°57' E 031°59'0 0.0
2018-Jun-08 12:55N 46°57' E 031°59'0 0.0
2018-Jun-08 12:28N 46°57' E 031°59'0 0.0
2018-Jun-08 11:58N 46°57' E 031°59'0 0.0
2018-Jun-08 11:28N 46°57' E 031°59'0 0.0
2018-Jun-08 10:58N 46°57' E 031°59'0 0.0
2018-Jun-08 10:28N 46°57' E 031°59'0 0.0
2018-Jun-08 09:55N 46°57' E 031°59'0 0.0
2018-Jun-08 09:28N 46°57' E 031°59'0 0.0
2018-Jun-08 08:58N 46°57' E 031°59'0 0.0
2018-Jun-08 08:28N 46°57' E 031°59'0 0.0
2018-Jun-08 07:58N 46°57' E 031°59'0 0.0
2018-Jun-08 07:26N 46°57' E 031°59'0 0.0
2018-Jun-08 06:59N 46°57' E 031°59'0 0.0
2018-Jun-08 06:30N 46°57' E 031°59'0 0.0
2018-Jun-08 06:00N 46°57' E 031°59'0 0.0
2018-Jun-08 05:30N 46°57' E 031°59'0 0.0
2018-Jun-08 05:00N 46°57' E 031°59'0 0.0
2018-Jun-08 04:30N 46°57' E 031°59'0 0.0
2018-Jun-08 04:00N 46°57' E 031°59'0 0.0
2018-Jun-08 03:29N 46°57' E 031°59'0 0.0
2018-Jun-08 02:58N 46°57' E 031°59'0 0.0
2018-Jun-08 02:28N 46°57' E 031°59'  

Dump ship's entire track history